sensor_id;sensor_type;location;lat;lon;timestamp;P1;durP1;ratioP1;P2;durP2;ratioP2
12072;SDS011;6098;49.004;8.372;2024-03-08T00:04:06;19.69;;;10.74;;
12072;SDS011;6098;49.004;8.372;2024-03-08T00:18:56;22.29;;;10.59;;
12072;SDS011;6098;49.004;8.372;2024-03-08T00:33:48;19.13;;;9.93;;
12072;SDS011;6098;49.004;8.372;2024-03-08T00:48:38;25.31;;;10.16;;
12072;SDS011;6098;49.004;8.372;2024-03-08T01:03:28;22.18;;;10.87;;
12072;SDS011;6098;49.004;8.372;2024-03-08T01:18:19;22.06;;;9.89;;
12072;SDS011;6098;49.004;8.372;2024-03-08T01:33:09;20.94;;;10.61;;
12072;SDS011;6098;49.004;8.372;2024-03-08T01:48:00;22.72;;;10.44;;
12072;SDS011;6098;49.004;8.372;2024-03-08T02:02:53;19.66;;;10.17;;
12072;SDS011;6098;49.004;8.372;2024-03-08T02:17:42;20.39;;;10.16;;
12072;SDS011;6098;49.004;8.372;2024-03-08T02:32:32;22.06;;;11.06;;
12072;SDS011;6098;49.004;8.372;2024-03-08T02:47:24;19.79;;;9.80;;
12072;SDS011;6098;49.004;8.372;2024-03-08T03:02:15;20.88;;;9.29;;
12072;SDS011;6098;49.004;8.372;2024-03-08T03:17:05;17.83;;;10.31;;
12072;SDS011;6098;49.004;8.372;2024-03-08T03:31:56;20.36;;;10.36;;
12072;SDS011;6098;49.004;8.372;2024-03-08T03:46:46;17.23;;;8.66;;
12072;SDS011;6098;49.004;8.372;2024-03-08T04:01:41;19.41;;;9.73;;
12072;SDS011;6098;49.004;8.372;2024-03-08T04:16:29;18.08;;;9.63;;
12072;SDS011;6098;49.004;8.372;2024-03-08T04:31:20;18.10;;;8.56;;
12072;SDS011;6098;49.004;8.372;2024-03-08T04:46:25;16.46;;;8.18;;
12072;SDS011;6098;49.004;8.372;2024-03-08T05:01:12;19.33;;;8.12;;
12072;SDS011;6098;49.004;8.372;2024-03-08T05:16:02;18.42;;;9.44;;
12072;SDS011;6098;49.004;8.372;2024-03-08T05:30:52;15.61;;;8.21;;
12072;SDS011;6098;49.004;8.372;2024-03-08T05:45:42;18.09;;;8.61;;
12072;SDS011;6098;49.004;8.372;2024-03-08T06:00:35;16.81;;;8.98;;
12072;SDS011;6098;49.004;8.372;2024-03-08T06:15:25;20.06;;;9.56;;
12072;SDS011;6098;49.004;8.372;2024-03-08T06:30:16;17.59;;;10.31;;
12072;SDS011;6098;49.004;8.372;2024-03-08T06:45:07;17.74;;;9.16;;
12072;SDS011;6098;49.004;8.372;2024-03-08T07:00:06;17.17;;;8.73;;
12072;SDS011;6098;49.004;8.372;2024-03-08T07:15:05;19.43;;;9.72;;
12072;SDS011;6098;49.004;8.372;2024-03-08T07:29:57;18.41;;;9.44;;
12072;SDS011;6098;49.004;8.372;2024-03-08T07:44:47;21.13;;;9.61;;
12072;SDS011;6098;49.004;8.372;2024-03-08T07:59:39;16.74;;;9.34;;
12072;SDS011;6098;49.004;8.372;2024-03-08T08:14:31;22.63;;;9.49;;
12072;SDS011;6098;49.004;8.372;2024-03-08T08:29:21;18.94;;;9.87;;
12072;SDS011;6098;49.004;8.372;2024-03-08T08:44:13;20.58;;;9.39;;
12072;SDS011;6098;49.004;8.372;2024-03-08T08:59:04;21.50;;;9.70;;
12072;SDS011;6098;49.004;8.372;2024-03-08T09:13:56;21.01;;;9.51;;
12072;SDS011;6098;49.004;8.372;2024-03-08T09:28:48;16.36;;;7.86;;
12072;SDS011;6098;49.004;8.372;2024-03-08T09:43:40;15.49;;;8.59;;
12072;SDS011;6098;49.004;8.372;2024-03-08T09:58:32;18.23;;;9.10;;
12072;SDS011;6098;49.004;8.372;2024-03-08T10:13:22;16.40;;;9.58;;
12072;SDS011;6098;49.004;8.372;2024-03-08T10:28:13;16.29;;;8.21;;
12072;SDS011;6098;49.004;8.372;2024-03-08T10:43:06;18.43;;;8.96;;
12072;SDS011;6098;49.004;8.372;2024-03-08T10:57:57;15.98;;;8.03;;
12072;SDS011;6098;49.004;8.372;2024-03-08T11:12:47;14.87;;;8.79;;
12072;SDS011;6098;49.004;8.372;2024-03-08T11:27:41;16.13;;;8.56;;
12072;SDS011;6098;49.004;8.372;2024-03-08T11:42:35;16.59;;;7.86;;
12072;SDS011;6098;49.004;8.372;2024-03-08T11:57:26;15.48;;;8.48;;
12072;SDS011;6098;49.004;8.372;2024-03-08T12:12:16;18.63;;;9.50;;
12072;SDS011;6098;49.004;8.372;2024-03-08T12:27:17;17.41;;;8.79;;
12072;SDS011;6098;49.004;8.372;2024-03-08T12:42:13;14.96;;;8.57;;
12072;SDS011;6098;49.004;8.372;2024-03-08T12:57:05;17.00;;;8.79;;
12072;SDS011;6098;49.004;8.372;2024-03-08T13:11:55;16.73;;;9.04;;
12072;SDS011;6098;49.004;8.372;2024-03-08T13:26:46;17.37;;;8.82;;
12072;SDS011;6098;49.004;8.372;2024-03-08T13:41:37;11.92;;;7.87;;
12072;SDS011;6098;49.004;8.372;2024-03-08T13:56:27;13.01;;;7.48;;
12072;SDS011;6098;49.004;8.372;2024-03-08T14:11:19;12.90;;;7.61;;
12072;SDS011;6098;49.004;8.372;2024-03-08T14:26:12;14.59;;;7.76;;
12072;SDS011;6098;49.004;8.372;2024-03-08T14:41:04;13.49;;;7.62;;
12072;SDS011;6098;49.004;8.372;2024-03-08T14:55:56;13.70;;;7.71;;
12072;SDS011;6098;49.004;8.372;2024-03-08T15:10:48;12.74;;;8.00;;
12072;SDS011;6098;49.004;8.372;2024-03-08T15:25:40;14.46;;;7.70;;
12072;SDS011;6098;49.004;8.372;2024-03-08T15:40:30;18.33;;;9.12;;
12072;SDS011;6098;49.004;8.372;2024-03-08T15:55:22;19.33;;;9.89;;
12072;SDS011;6098;49.004;8.372;2024-03-08T16:10:13;21.57;;;8.76;;
12072;SDS011;6098;49.004;8.372;2024-03-08T16:25:04;17.39;;;8.67;;
12072;SDS011;6098;49.004;8.372;2024-03-08T16:39:56;18.56;;;9.23;;
12072;SDS011;6098;49.004;8.372;2024-03-08T16:54:47;20.02;;;9.32;;
12072;SDS011;6098;49.004;8.372;2024-03-08T17:09:38;20.68;;;9.96;;
12072;SDS011;6098;49.004;8.372;2024-03-08T17:24:29;21.07;;;9.28;;
12072;SDS011;6098;49.004;8.372;2024-03-08T17:39:21;21.46;;;9.80;;
12072;SDS011;6098;49.004;8.372;2024-03-08T17:54:13;17.81;;;9.11;;
12072;SDS011;6098;49.004;8.372;2024-03-08T18:09:10;24.22;;;10.69;;
12072;SDS011;6098;49.004;8.372;2024-03-08T18:24:05;22.39;;;10.31;;
12072;SDS011;6098;49.004;8.372;2024-03-08T18:38:58;25.04;;;11.92;;
12072;SDS011;6098;49.004;8.372;2024-03-08T18:53:52;20.36;;;10.38;;
12072;SDS011;6098;49.004;8.372;2024-03-08T19:08:44;21.08;;;10.86;;
12072;SDS011;6098;49.004;8.372;2024-03-08T19:23:35;22.86;;;11.10;;
12072;SDS011;6098;49.004;8.372;2024-03-08T19:38:28;23.26;;;11.24;;
12072;SDS011;6098;49.004;8.372;2024-03-08T19:53:19;24.58;;;11.07;;
12072;SDS011;6098;49.004;8.372;2024-03-08T20:08:11;26.61;;;12.43;;
12072;SDS011;6098;49.004;8.372;2024-03-08T20:23:02;25.57;;;11.71;;
12072;SDS011;6098;49.004;8.372;2024-03-08T20:37:53;21.46;;;10.50;;
12072;SDS011;6098;49.004;8.372;2024-03-08T20:52:44;21.48;;;10.17;;
12072;SDS011;6098;49.004;8.372;2024-03-08T21:07:34;20.83;;;9.76;;
12072;SDS011;6098;49.004;8.372;2024-03-08T21:22:27;18.59;;;9.26;;
12072;SDS011;6098;49.004;8.372;2024-03-08T21:37:19;18.97;;;9.89;;
12072;SDS011;6098;49.004;8.372;2024-03-08T21:52:09;16.21;;;8.88;;
12072;SDS011;6098;49.004;8.372;2024-03-08T22:07:01;20.12;;;9.70;;
12072;SDS011;6098;49.004;8.372;2024-03-08T22:21:52;16.10;;;8.32;;
12072;SDS011;6098;49.004;8.372;2024-03-08T22:36:46;16.30;;;8.56;;
12072;SDS011;6098;49.004;8.372;2024-03-08T22:51:36;15.28;;;7.42;;
12072;SDS011;6098;49.004;8.372;2024-03-08T23:06:30;12.32;;;6.77;;
12072;SDS011;6098;49.004;8.372;2024-03-08T23:21:21;13.96;;;7.29;;
12072;SDS011;6098;49.004;8.372;2024-03-08T23:36:15;13.73;;;7.09;;
12072;SDS011;6098;49.004;8.372;2024-03-08T23:51:06;14.42;;;7.14;;
